sensor_id;sensor_type;location;lat;lon;timestamp;pressure;altitude;pressure_sealevel;temperature;humidity
40850;BME280;26571;41.610;25.380;2022-09-09T00:00:40;98556.50;;;18.88;59.50
40850;BME280;26571;41.610;25.380;2022-09-09T00:03:23;98554.06;;;18.86;59.55
40850;BME280;26571;41.610;25.380;2022-09-09T00:06:17;98554.06;;;18.86;59.50
40850;BME280;26571;41.610;25.380;2022-09-09T00:09:08;98559.22;;;18.81;59.93
40850;BME280;26571;41.610;25.380;2022-09-09T00:17:21;98557.91;;;18.58;60.48
40850;BME280;26571;41.610;25.380;2022-09-09T00:20:14;98569.06;;;18.42;60.99
40850;BME280;26571;41.610;25.380;2022-09-09T00:22:48;98572.81;;;18.28;61.55
40850;BME280;26571;41.610;25.380;2022-09-09T00:25:21;98576.13;;;18.30;61.17
40850;BME280;26571;41.610;25.380;2022-09-09T00:27:49;98588.03;;;18.21;61.78
40850;BME280;26571;41.610;25.380;2022-09-09T00:30:19;98580.28;;;18.13;62.27
40850;BME280;26571;41.610;25.380;2022-09-09T00:32:48;98579.31;;;18.00;62.18
40850;BME280;26571;41.610;25.380;2022-09-09T00:37:42;98573.16;;;17.93;62.58
40850;BME280;26571;41.610;25.380;2022-09-09T00:40:38;98577.47;;;18.01;62.18
40850;BME280;26571;41.610;25.380;2022-09-09T00:43:31;98580.09;;;18.07;61.79
40850;BME280;26571;41.610;25.380;2022-09-09T00:48:27;98584.16;;;18.17;61.54
40850;BME280;26571;41.610;25.380;2022-09-09T00:51:00;98543.84;;;18.00;61.76
40850;BME280;26571;41.610;25.380;2022-09-09T00:56:14;98571.41;;;18.25;62.01
40850;BME280;26571;41.610;25.380;2022-09-09T00:58:43;98567.53;;;18.21;62.48
40850;BME280;26571;41.610;25.380;2022-09-09T01:01:15;98578.19;;;18.15;62.86
40850;BME280;26571;41.610;25.380;2022-09-09T01:06:29;98577.25;;;18.02;63.07
40850;BME280;26571;41.610;25.380;2022-09-09T01:11:56;98585.25;;;17.96;63.15
40850;BME280;26571;41.610;25.380;2022-09-09T01:17:24;98581.78;;;17.89;64.10
40850;BME280;26571;41.610;25.380;2022-09-09T01:20:10;98594.50;;;17.80;64.23
40850;BME280;26571;41.610;25.380;2022-09-09T01:22:47;98593.28;;;17.63;64.66
40850;BME280;26571;41.610;25.380;2022-09-09T01:28:08;98577.75;;;17.33;65.30
40850;BME280;26571;41.610;25.380;2022-09-09T01:30:39;98587.34;;;17.54;64.96
40850;BME280;26571;41.610;25.380;2022-09-09T01:33:07;98583.47;;;17.56;64.71
40850;BME280;26571;41.610;25.380;2022-09-09T01:35:52;98587.97;;;17.63;64.80
40850;BME280;26571;41.610;25.380;2022-09-09T01:38:21;98585.53;;;17.61;64.91
40850;BME280;26571;41.610;25.380;2022-09-09T01:40:47;98590.63;;;17.63;64.78
40850;BME280;26571;41.610;25.380;2022-09-09T01:43:14;98590.63;;;17.49;65.51
40850;BME280;26571;41.610;25.380;2022-09-09T01:45:40;98594.75;;;17.52;65.49
40850;BME280;26571;41.610;25.380;2022-09-09T01:48:07;98592.69;;;17.47;65.31
40850;BME280;26571;41.610;25.380;2022-09-09T01:50:32;98586.34;;;17.48;65.30
40850;BME280;26571;41.610;25.380;2022-09-09T01:52:59;98589.81;;;17.49;65.55
40850;BME280;26571;41.610;25.380;2022-09-09T01:55:39;98585.13;;;17.44;65.46
40850;BME280;26571;41.610;25.380;2022-09-09T02:04:41;98588.41;;;17.40;64.88
40850;BME280;26571;41.610;25.380;2022-09-09T02:12:46;98553.41;;;17.29;64.69
40850;BME280;26571;41.610;25.380;2022-09-09T02:15:30;98552.16;;;17.39;64.83
40850;BME280;26571;41.610;25.380;2022-09-09T02:17:58;98553.19;;;17.44;64.56
40850;BME280;26571;41.610;25.380;2022-09-09T02:20:25;98587.75;;;17.64;64.70
40850;BME280;26571;41.610;25.380;2022-09-09T02:22:53;98593.94;;;17.51;64.80
40850;BME280;26571;41.610;25.380;2022-09-09T02:25:24;98591.66;;;17.55;64.97
40850;BME280;26571;41.610;25.380;2022-09-09T02:27:51;98583.66;;;17.55;65.18
40850;BME280;26571;41.610;25.380;2022-09-09T02:30:17;98593.50;;;17.54;64.94
40850;BME280;26571;41.610;25.380;2022-09-09T02:32:44;98582.06;;;17.47;65.18
40850;BME280;26571;41.610;25.380;2022-09-09T02:35:16;98584.94;;;17.33;65.92
40850;BME280;26571;41.610;25.380;2022-09-09T02:37:44;98578.78;;;17.39;65.57
40850;BME280;26571;41.610;25.380;2022-09-09T02:40:13;98583.28;;;17.38;65.45
40850;BME280;26571;41.610;25.380;2022-09-09T02:42:45;98580.63;;;17.38;65.53
40850;BME280;26571;41.610;25.380;2022-09-09T02:45:14;98580.03;;;17.36;65.55
40850;BME280;26571;41.610;25.380;2022-09-09T02:47:57;98579.19;;;17.29;65.77
40850;BME280;26571;41.610;25.380;2022-09-09T02:53:08;98568.59;;;17.16;66.18
40850;BME280;26571;41.610;25.380;2022-09-09T02:55:46;98566.91;;;17.15;66.09
40850;BME280;26571;41.610;25.380;2022-09-09T02:58:16;98568.16;;;17.19;66.19
40850;BME280;26571;41.610;25.380;2022-09-09T03:00:45;98568.16;;;17.19;66.22
40850;BME280;26571;41.610;25.380;2022-09-09T03:03:11;98567.13;;;17.13;66.57
40850;BME280;26571;41.610;25.380;2022-09-09T03:05:37;98559.16;;;17.07;66.77
40850;BME280;26571;41.610;25.380;2022-09-09T03:08:04;98567.13;;;17.00;67.09
40850;BME280;26571;41.610;25.380;2022-09-09T03:10:31;98534.38;;;16.73;67.16
40850;BME280;26571;41.610;25.380;2022-09-09T03:12:57;98566.09;;;16.94;66.79
40850;BME280;26571;41.610;25.380;2022-09-09T03:15:23;98563.22;;;16.89;66.68
40850;BME280;26571;41.610;25.380;2022-09-09T03:17:48;98567.13;;;16.87;67.03
40850;BME280;26571;41.610;25.380;2022-09-09T03:20:14;98565.69;;;16.84;67.28
40850;BME280;26571;41.610;25.380;2022-09-09T03:22:39;98559.13;;;16.80;67.34
40850;BME280;26571;41.610;25.380;2022-09-09T03:25:05;98562.22;;;16.77;67.45
40850;BME280;26571;41.610;25.380;2022-09-09T03:27:31;98566.91;;;16.75;67.59
40850;BME280;26571;41.610;25.380;2022-09-09T03:29:56;98575.44;;;16.64;68.16
40850;BME280;26571;41.610;25.380;2022-09-09T03:32:22;98575.44;;;16.64;68.35
40850;BME280;26571;41.610;25.380;2022-09-09T03:34:48;98576.25;;;16.64;68.19
40850;BME280;26571;41.610;25.380;2022-09-09T03:37:17;98569.31;;;16.57;68.49
40850;BME280;26571;41.610;25.380;2022-09-09T03:39:43;98575.22;;;16.52;68.98
40850;BME280;26571;41.610;25.380;2022-09-09T03:42:08;98575.44;;;16.57;69.13
40850;BME280;26571;41.610;25.380;2022-09-09T03:44:34;98579.50;;;16.60;68.46
40850;BME280;26571;41.610;25.380;2022-09-09T03:46:59;98557.59;;;16.44;68.53
40850;BME280;26571;41.610;25.380;2022-09-09T03:49:27;98568.06;;;16.59;68.64
40850;BME280;26571;41.610;25.380;2022-09-09T03:51:56;98573.00;;;16.62;68.70
40850;BME280;26571;41.610;25.380;2022-09-09T03:54:23;98580.75;;;16.64;68.85
40850;BME280;26571;41.610;25.380;2022-09-09T03:56:49;98576.69;;;16.61;69.00
40850;BME280;26571;41.610;25.380;2022-09-09T03:59:14;98575.63;;;16.55;69.42
40850;BME280;26571;41.610;25.380;2022-09-09T04:01:39;98572.53;;;16.45;70.04
40850;BME280;26571;41.610;25.380;2022-09-09T04:04:05;98537.53;;;16.28;70.03
40850;BME280;26571;41.610;25.380;2022-09-09T04:06:30;98576.66;;;16.54;69.64
40850;BME280;26571;41.610;25.380;2022-09-09T04:08:56;98593.41;;;16.48;70.20
40850;BME280;26571;41.610;25.380;2022-09-09T04:11:21;98591.94;;;16.39;69.95
40850;BME280;26571;41.610;25.380;2022-09-09T04:13:47;98593.41;;;16.48;69.37
40850;BME280;26571;41.610;25.380;2022-09-09T04:16:13;98610.59;;;16.59;69.23
40850;BME280;26571;41.610;25.380;2022-09-09T04:18:39;98590.44;;;16.71;68.92
40850;BME280;26571;41.610;25.380;2022-09-09T04:21:05;98602.09;;;16.84;68.96
40850;BME280;26571;41.610;25.380;2022-09-09T04:23:32;98577.16;;;16.91;69.24
40850;BME280;26571;41.610;25.380;2022-09-09T04:26:00;98565.28;;;17.34;68.53
40850;BME280;26571;41.610;25.380;2022-09-09T04:28:31;98594.50;;;18.38;65.36
40850;BME280;26571;41.610;25.380;2022-09-09T04:30:56;98598.63;;;19.35;61.10
40850;BME280;26571;41.610;25.380;2022-09-09T04:33:25;98605.38;;;20.36;57.87
40850;BME280;26571;41.610;25.380;2022-09-09T04:35:53;98608.19;;;21.44;54.26
40850;BME280;26571;41.610;25.380;2022-09-09T04:38:20;98600.72;;;22.44;50.36
40850;BME280;26571;41.610;25.380;2022-09-09T04:40:48;98611.06;;;23.27;48.29
40850;BME280;26571;41.610;25.380;2022-09-09T04:43:14;98598.91;;;24.13;45.22
40850;BME280;26571;41.610;25.380;2022-09-09T04:45:43;98605.00;;;25.01;42.87
40850;BME280;26571;41.610;25.380;2022-09-09T04:48:09;98597.81;;;25.76;40.87
40850;BME280;26571;41.610;25.380;2022-09-09T04:50:37;98599.72;;;26.44;39.66
40850;BME280;26571;41.610;25.380;2022-09-09T04:53:03;98601.47;;;26.96;38.28
40850;BME280;26571;41.610;25.380;2022-09-09T04:55:31;98577.44;;;27.35;37.35
40850;BME280;26571;41.610;25.380;2022-09-09T04:57:56;98592.13;;;28.14;35.87
40850;BME280;26571;41.610;25.380;2022-09-09T05:00:23;98594.81;;;28.79;34.83
40850;BME280;26571;41.610;25.380;2022-09-09T05:02:49;98594.13;;;29.36;33.90
40850;BME280;26571;41.610;25.380;2022-09-09T05:05:15;98583.81;;;29.92;32.75
40850;BME280;26571;41.610;25.380;2022-09-09T05:07:40;98598.44;;;30.44;31.81
40850;BME280;26571;41.610;25.380;2022-09-09T05:10:07;98588.13;;;30.83;30.90
40850;BME280;26571;41.610;25.380;2022-09-09T05:12:32;98596.44;;;31.06;30.54
40850;BME280;26571;41.610;25.380;2022-09-09T05:14:58;98593.44;;;31.26;30.47
40850;BME280;26571;41.610;25.380;2022-09-09T05:17:23;98591.34;;;31.37;30.21
40850;BME280;26571;41.610;25.380;2022-09-09T05:19:49;98567.38;;;31.53;29.72
40850;BME280;26571;41.610;25.380;2022-09-09T05:22:20;98593.84;;;32.07;29.02
40850;BME280;26571;41.610;25.380;2022-09-09T05:24:48;98581.44;;;32.15;28.95
40850;BME280;26571;41.610;25.380;2022-09-09T05:27:16;98562.53;;;32.32;28.62
40850;BME280;26571;41.610;25.380;2022-09-09T05:29:43;98592.72;;;32.86;28.12
40850;BME280;26571;41.610;25.380;2022-09-09T05:32:09;98604.59;;;33.04;27.89
40850;BME280;26571;41.610;25.380;2022-09-09T05:34:35;98609.91;;;33.31;27.62
40850;BME280;26571;41.610;25.380;2022-09-09T05:37:00;98600.66;;;33.63;26.93
40850;BME280;26571;41.610;25.380;2022-09-09T05:39:26;98598.03;;;33.89;26.35
40850;BME280;26571;41.610;25.380;2022-09-09T05:41:51;98583.81;;;33.70;26.84
40850;BME280;26571;41.610;25.380;2022-09-09T05:44:16;98581.47;;;33.86;26.79
40850;BME280;26571;41.610;25.380;2022-09-09T05:46:42;98588.09;;;33.93;26.66
40850;BME280;26571;41.610;25.380;2022-09-09T05:49:08;98580.81;;;33.80;26.71
40850;BME280;26571;41.610;25.380;2022-09-09T05:51:33;98594.59;;;33.98;26.72
40850;BME280;26571;41.610;25.380;2022-09-09T05:53:59;98598.16;;;34.07;26.79
40850;BME280;26571;41.610;25.380;2022-09-09T05:56:27;98601.38;;;34.09;26.12
40850;BME280;26571;41.610;25.380;2022-09-09T05:58:54;98596.66;;;34.01;26.44
40850;BME280;26571;41.610;25.380;2022-09-09T06:01:27;98591.34;;;33.95;26.43
40850;BME280;26571;41.610;25.380;2022-09-09T06:03:54;98592.91;;;33.88;26.63
40850;BME280;26571;41.610;25.380;2022-09-09T06:06:21;98599.88;;;33.63;26.75
40850;BME280;26571;41.610;25.380;2022-09-09T06:08:48;98610.06;;;33.49;26.85
40850;BME280;26571;41.610;25.380;2022-09-09T06:11:21;98609.06;;;33.00;27.70
40850;BME280;26571;41.610;25.380;2022-09-09T06:13:47;98604.09;;;32.65;28.32
40850;BME280;26571;41.610;25.380;2022-09-09T06:16:17;98599.06;;;32.59;28.42
40850;BME280;26571;41.610;25.380;2022-09-09T06:18:43;98598.28;;;32.45;28.45
40850;BME280;26571;41.610;25.380;2022-09-09T06:21:14;98580.06;;;32.04;28.83
40850;BME280;26571;41.610;25.380;2022-09-09T06:23:40;98609.19;;;31.89;29.09
40850;BME280;26571;41.610;25.380;2022-09-09T06:26:12;98620.38;;;31.42;30.52
40850;BME280;26571;41.610;25.380;2022-09-09T06:28:38;98621.72;;;30.50;31.75
40850;BME280;26571;41.610;25.380;2022-09-09T06:31:07;98603.22;;;30.28;32.45
40850;BME280;26571;41.610;25.380;2022-09-09T06:33:35;98595.16;;;30.23;32.67
40850;BME280;26571;41.610;25.380;2022-09-09T06:36:02;98592.78;;;30.16;32.63
40850;BME280;26571;41.610;25.380;2022-09-09T06:38:29;98583.94;;;30.05;32.87
40850;BME280;26571;41.610;25.380;2022-09-09T06:40:56;98589.50;;;29.95;32.34
40850;BME280;26571;41.610;25.380;2022-09-09T06:43:23;98596.38;;;29.58;33.00
40850;BME280;26571;41.610;25.380;2022-09-09T06:46:03;98595.34;;;29.54;33.36
40850;BME280;26571;41.610;25.380;2022-09-09T06:48:29;98589.94;;;29.49;34.08
40850;BME280;26571;41.610;25.380;2022-09-09T06:51:09;98575.09;;;29.42;33.81
40850;BME280;26571;41.610;25.380;2022-09-09T06:53:36;98535.69;;;28.86;33.91
40850;BME280;26571;41.610;25.380;2022-09-09T06:56:17;98586.84;;;28.98;34.29
40850;BME280;26571;41.610;25.380;2022-09-09T06:58:43;98580.19;;;28.80;35.26
40850;BME280;26571;41.610;25.380;2022-09-09T07:01:15;98581.19;;;28.50;35.28
40850;BME280;26571;41.610;25.380;2022-09-09T07:03:42;98572.88;;;28.36;35.60
40850;BME280;26571;41.610;25.380;2022-09-09T07:06:14;98547.84;;;28.00;35.35
40850;BME280;26571;41.610;25.380;2022-09-09T07:08:40;98580.28;;;28.10;35.92
40850;BME280;26571;41.610;25.380;2022-09-09T07:11:07;98583.75;;;28.21;36.40
40850;BME280;26571;41.610;25.380;2022-09-09T07:13:33;98577.53;;;28.15;35.87
40850;BME280;26571;41.610;25.380;2022-09-09T07:16:07;98571.00;;;28.26;35.07
40850;BME280;26571;41.610;25.380;2022-09-09T07:18:33;98569.38;;;28.25;36.16
40850;BME280;26571;41.610;25.380;2022-09-09T07:20:58;98539.63;;;28.20;37.54
40850;BME280;26571;41.610;25.380;2022-09-09T07:23:24;98570.91;;;28.47;38.10
40850;BME280;26571;41.610;25.380;2022-09-09T07:25:51;98582.81;;;28.51;37.54
40850;BME280;26571;41.610;25.380;2022-09-09T07:28:18;98584.00;;;28.19;37.89
40850;BME280;26571;41.610;25.380;2022-09-09T07:30:53;98576.91;;;28.28;37.45
40850;BME280;26571;41.610;25.380;2022-09-09T07:33:18;98569.03;;;28.42;38.13
40850;BME280;26571;41.610;25.380;2022-09-09T07:35:45;98580.56;;;28.63;37.82
40850;BME280;26571;41.610;25.380;2022-09-09T07:38:11;98579.94;;;28.76;36.74
40850;BME280;26571;41.610;25.380;2022-09-09T07:40:37;98586.47;;;28.70;36.77
40850;BME280;26571;41.610;25.380;2022-09-09T07:43:02;98598.41;;;28.64;36.67
40850;BME280;26571;41.610;25.380;2022-09-09T07:45:28;98594.38;;;28.62;37.82
40850;BME280;26571;41.610;25.380;2022-09-09T07:47:54;98594.31;;;28.72;37.02
40850;BME280;26571;41.610;25.380;2022-09-09T07:50:22;98598.44;;;28.59;39.43
40850;BME280;26571;41.610;25.380;2022-09-09T07:52:49;98602.84;;;28.55;37.54
40850;BME280;26571;41.610;25.380;2022-09-09T07:55:14;98589.06;;;28.46;37.65
40850;BME280;26571;41.610;25.380;2022-09-09T07:57:40;98593.63;;;28.51;37.73
40850;BME280;26571;41.610;25.380;2022-09-09T08:00:06;98584.34;;;28.62;37.06
40850;BME280;26571;41.610;25.380;2022-09-09T08:02:31;98581.13;;;28.60;36.40
40850;BME280;26571;41.610;25.380;2022-09-09T08:04:57;98575.13;;;28.63;36.63
40850;BME280;26571;41.610;25.380;2022-09-09T08:07:22;98576.72;;;28.69;37.72
40850;BME280;26571;41.610;25.380;2022-09-09T08:09:48;98579.94;;;28.76;37.25
40850;BME280;26571;41.610;25.380;2022-09-09T08:12:14;98590.22;;;28.79;37.37
40850;BME280;26571;41.610;25.380;2022-09-09T08:14:40;98563.03;;;28.95;36.65
40850;BME280;26571;41.610;25.380;2022-09-09T08:17:05;98559.19;;;29.01;35.97
40850;BME280;26571;41.610;25.380;2022-09-09T08:19:31;98552.66;;;29.02;38.25
40850;BME280;26571;41.610;25.380;2022-09-09T08:21:59;98549.78;;;29.22;36.76
40850;BME280;26571;41.610;25.380;2022-09-09T08:24:27;98524.75;;;29.01;34.65
40850;BME280;26571;41.610;25.380;2022-09-09T08:26:52;98536.44;;;28.97;35.13
40850;BME280;26571;41.610;25.380;2022-09-09T08:29:19;98516.84;;;28.71;35.66
40850;BME280;26571;41.610;25.380;2022-09-09T08:31:47;98530.78;;;28.88;35.05
40850;BME280;26571;41.610;25.380;2022-09-09T08:34:14;98524.81;;;28.91;35.89
40850;BME280;26571;41.610;25.380;2022-09-09T08:36:42;98522.28;;;29.05;35.53
40850;BME280;26571;41.610;25.380;2022-09-09T08:39:09;98509.34;;;28.97;34.61
40850;BME280;26571;41.610;25.380;2022-09-09T08:52:01;98503.47;;;29.43;35.54
40850;BME280;26571;41.610;25.380;2022-09-09T08:54:33;98498.94;;;29.62;33.84
40850;BME280;26571;41.610;25.380;2022-09-09T08:57:01;98496.59;;;29.55;33.94
40850;BME280;26571;41.610;25.380;2022-09-09T08:59:26;98494.31;;;29.63;33.98
40850;BME280;26571;41.610;25.380;2022-09-09T09:01:59;98480.38;;;29.74;33.52
40850;BME280;26571;41.610;25.380;2022-09-09T09:07:56;98479.59;;;30.11;33.61
40850;BME280;26571;41.610;25.380;2022-09-09T09:10:50;98479.06;;;30.15;32.72
40850;BME280;26571;41.610;25.380;2022-09-09T09:13:35;98472.81;;;30.14;34.08
40850;BME280;26571;41.610;25.380;2022-09-09T09:16:57;98436.06;;;29.98;32.73
40850;BME280;26571;41.610;25.380;2022-09-09T09:18:58;98420.66;;;30.12;33.76
40850;BME280;26571;41.610;25.380;2022-09-09T09:21:43;98466.59;;;30.65;32.73
40850;BME280;26571;41.610;25.380;2022-09-09T09:24:21;98428.72;;;30.55;30.85
40850;BME280;26571;41.610;25.380;2022-09-09T09:26:49;98458.81;;;30.77;31.46
40850;BME280;26571;41.610;25.380;2022-09-09T09:29:17;98459.75;;;30.68;31.68
40850;BME280;26571;41.610;25.380;2022-09-09T09:31:55;98451.50;;;30.59;32.15
40850;BME280;26571;41.610;25.380;2022-09-09T09:34:23;98445.16;;;30.63;31.80
40850;BME280;26571;41.610;25.380;2022-09-09T09:36:57;98442.81;;;30.57;31.78
40850;BME280;26571;41.610;25.380;2022-09-09T09:39:27;98458.53;;;30.60;32.91
40850;BME280;26571;41.610;25.380;2022-09-09T09:41:53;98412.56;;;30.63;32.68
40850;BME280;26571;41.610;25.380;2022-09-09T09:44:40;98439.94;;;31.00;31.76
40850;BME280;26571;41.610;25.380;2022-09-09T09:47:12;98439.66;;;31.15;31.38
40850;BME280;26571;41.610;25.380;2022-09-09T09:49:39;98425.47;;;31.18;31.51
40850;BME280;26571;41.610;25.380;2022-09-09T09:52:06;98438.13;;;31.23;31.24
40850;BME280;26571;41.610;25.380;2022-09-09T09:54:41;98419.63;;;31.25;31.61
40850;BME280;26571;41.610;25.380;2022-09-09T09:57:17;98422.47;;;31.33;31.53
40850;BME280;26571;41.610;25.380;2022-09-09T09:59:43;98422.88;;;31.40;31.38
40850;BME280;26571;41.610;25.380;2022-09-09T10:02:20;98416.94;;;31.38;31.54
40850;BME280;26571;41.610;25.380;2022-09-09T10:05:00;98426.69;;;31.39;30.99
40850;BME280;26571;41.610;25.380;2022-09-09T10:07:26;98424.44;;;31.14;31.28
40850;BME280;26571;41.610;25.380;2022-09-09T10:09:57;98416.28;;;31.14;31.34
40850;BME280;26571;41.610;25.380;2022-09-09T10:17:39;98410.59;;;31.29;33.46
40850;BME280;26571;41.610;25.380;2022-09-09T10:22:35;98399.34;;;31.17;31.52
40850;BME280;26571;41.610;25.380;2022-09-09T10:27:39;98395.66;;;31.13;31.57
40850;BME280;26571;41.610;25.380;2022-09-09T10:33:16;98391.59;;;30.97;32.64
40850;BME280;26571;41.610;25.380;2022-09-09T10:38:40;98383.34;;;31.15;31.87
40850;BME280;26571;41.610;25.380;2022-09-09T10:46:26;98361.97;;;31.23;31.44
40850;BME280;26571;41.610;25.380;2022-09-09T10:52:15;98366.28;;;30.82;31.73
40850;BME280;26571;41.610;25.380;2022-09-09T11:00:01;98348.69;;;30.80;32.77
40850;BME280;26571;41.610;25.380;2022-09-09T11:02:31;98362.00;;;30.95;32.16
40850;BME280;26571;41.610;25.380;2022-09-09T11:07:33;98350.22;;;31.00;32.77
40850;BME280;26571;41.610;25.380;2022-09-09T11:10:04;98343.56;;;31.06;32.05
40850;BME280;26571;41.610;25.380;2022-09-09T11:12:34;98339.94;;;31.10;32.04
40850;BME280;26571;41.610;25.380;2022-09-09T11:15:08;98361.19;;;31.08;32.06
40850;BME280;26571;41.610;25.380;2022-09-09T11:17:53;98335.00;;;30.99;32.61
40850;BME280;26571;41.610;25.380;2022-09-09T11:20:22;98339.44;;;30.95;32.70
40850;BME280;26571;41.610;25.380;2022-09-09T11:23:06;98329.97;;;30.92;31.71
40850;BME280;26571;41.610;25.380;2022-09-09T11:25:40;98326.63;;;30.81;31.75
40850;BME280;26571;41.610;25.380;2022-09-09T11:28:28;98324.84;;;30.91;32.30
40850;BME280;26571;41.610;25.380;2022-09-09T11:38:51;98326.94;;;31.21;32.77
40850;BME280;26571;41.610;25.380;2022-09-09T11:41:17;98308.69;;;31.08;31.49
40850;BME280;26571;41.610;25.380;2022-09-09T11:43:48;98330.44;;;31.22;32.85
40850;BME280;26571;41.610;25.380;2022-09-09T11:46:21;98334.28;;;31.21;32.04
40850;BME280;26571;41.610;25.380;2022-09-09T11:49:02;98291.31;;;30.95;32.26
40850;BME280;26571;41.610;25.380;2022-09-09T11:51:29;98311.84;;;31.01;32.19
40850;BME280;26571;41.610;25.380;2022-09-09T11:54:28;98313.66;;;30.92;32.98
40850;BME280;26571;41.610;25.380;2022-09-09T11:56:54;98307.31;;;30.97;33.10
40850;BME280;26571;41.610;25.380;2022-09-09T12:01:55;98294.72;;;31.01;32.30
40850;BME280;26571;41.610;25.380;2022-09-09T12:09:39;98252.66;;;30.84;33.44
40850;BME280;26571;41.610;25.380;2022-09-09T12:17:48;98269.03;;;31.07;32.41
40850;BME280;26571;41.610;25.380;2022-09-09T12:30:24;98255.47;;;30.79;33.08
40850;BME280;26571;41.610;25.380;2022-09-09T12:33:10;98253.66;;;30.88;33.59
40850;BME280;26571;41.610;25.380;2022-09-09T12:35:36;98250.63;;;30.90;33.13
40850;BME280;26571;41.610;25.380;2022-09-09T12:38:04;98249.81;;;30.89;33.41
40850;BME280;26571;41.610;25.380;2022-09-09T12:40:35;98245.28;;;30.99;32.72
40850;BME280;26571;41.610;25.380;2022-09-09T12:43:22;98244.38;;;31.03;32.74
40850;BME280;26571;41.610;25.380;2022-09-09T12:45:48;98246.78;;;31.05;32.54
40850;BME280;26571;41.610;25.380;2022-09-09T12:48:31;98225.06;;;30.91;33.21
40850;BME280;26571;41.610;25.380;2022-09-09T12:50:58;98200.50;;;30.82;32.85
40850;BME280;26571;41.610;25.380;2022-09-09T12:53:31;98230.06;;;30.98;32.59
40850;BME280;26571;41.610;25.380;2022-09-09T12:56:01;98224.94;;;30.96;32.70
40850;BME280;26571;41.610;25.380;2022-09-09T12:58:30;98229.38;;;30.92;33.11
40850;BME280;26571;41.610;25.380;2022-09-09T13:00:59;98221.63;;;30.85;33.07
40850;BME280;26571;41.610;25.380;2022-09-09T13:03:26;98216.63;;;30.79;33.50
40850;BME280;26571;41.610;25.380;2022-09-09T13:05:53;98225.69;;;30.74;33.36
40850;BME280;26571;41.610;25.380;2022-09-09T13:08:20;98192.88;;;30.71;33.31
40850;BME280;26571;41.610;25.380;2022-09-09T13:11:00;98194.88;;;30.79;33.52
40850;BME280;26571;41.610;25.380;2022-09-09T13:13:35;98202.13;;;30.83;32.92
40850;BME280;26571;41.610;25.380;2022-09-09T13:16:02;98198.88;;;30.81;32.91
40850;BME280;26571;41.610;25.380;2022-09-09T13:18:32;98196.69;;;30.83;33.67
40850;BME280;26571;41.610;25.380;2022-09-09T13:20:58;98192.84;;;30.84;32.90
40850;BME280;26571;41.610;25.380;2022-09-09T13:23:30;98196.69;;;30.83;32.86
40850;BME280;26571;41.610;25.380;2022-09-09T13:26:01;98183.81;;;30.75;32.93
40850;BME280;26571;41.610;25.380;2022-09-09T13:28:29;98193.56;;;30.76;32.89
40850;BME280;26571;41.610;25.380;2022-09-09T13:31:03;98202.03;;;30.75;32.65
40850;BME280;26571;41.610;25.380;2022-09-09T13:33:34;98195.59;;;30.71;32.99
40850;BME280;26571;41.610;25.380;2022-09-09T13:36:09;98193.66;;;30.71;33.00
40850;BME280;26571;41.610;25.380;2022-09-09T13:38:53;98201.91;;;30.66;32.51
40850;BME280;26571;41.610;25.380;2022-09-09T13:41:21;98197.78;;;30.69;33.18
40850;BME280;26571;41.610;25.380;2022-09-09T13:43:49;98192.28;;;30.74;32.37
40850;BME280;26571;41.610;25.380;2022-09-09T13:46:33;98193.06;;;30.74;32.41
40850;BME280;26571;41.610;25.380;2022-09-09T13:49:21;98211.34;;;30.82;32.42
40850;BME280;26571;41.610;25.380;2022-09-09T13:51:50;98196.06;;;30.86;32.82
40850;BME280;26571;41.610;25.380;2022-09-09T13:54:19;98204.13;;;30.78;33.22
40850;BME280;26571;41.610;25.380;2022-09-09T13:56:45;98208.38;;;30.70;33.37
40850;BME280;26571;41.610;25.380;2022-09-09T13:59:15;98196.91;;;30.73;33.76
40850;BME280;26571;41.610;25.380;2022-09-09T14:01:41;98196.06;;;30.73;34.25
40850;BME280;26571;41.610;25.380;2022-09-09T14:04:07;98197.88;;;30.77;32.97
40850;BME280;26571;41.610;25.380;2022-09-09T14:06:34;98192.56;;;30.72;34.04
40850;BME280;26571;41.610;25.380;2022-09-09T14:09:02;98194.56;;;30.80;34.10
40850;BME280;26571;41.610;25.380;2022-09-09T14:11:28;98190.72;;;30.81;33.57
40850;BME280;26571;41.610;25.380;2022-09-09T14:13:53;98189.44;;;30.79;33.88
40850;BME280;26571;41.610;25.380;2022-09-09T14:16:19;98157.03;;;30.55;33.20
40850;BME280;26571;41.610;25.380;2022-09-09T14:18:45;98194.66;;;30.75;33.76
40850;BME280;26571;41.610;25.380;2022-09-09T14:21:11;98189.09;;;30.67;34.51
40850;BME280;26571;41.610;25.380;2022-09-09T14:23:37;98184.00;;;30.65;34.10
40850;BME280;26571;41.610;25.380;2022-09-09T14:26:04;98185.38;;;30.62;33.15
40850;BME280;26571;41.610;25.380;2022-09-09T14:28:29;98177.97;;;30.54;33.43
40850;BME280;26571;41.610;25.380;2022-09-09T14:30:54;98173.94;;;30.52;33.84
40850;BME280;26571;41.610;25.380;2022-09-09T14:33:20;98160.25;;;30.29;34.61
40850;BME280;26571;41.610;25.380;2022-09-09T14:35:46;98184.41;;;30.45;34.82
40850;BME280;26571;41.610;25.380;2022-09-09T14:38:14;98176.16;;;30.36;34.91
40850;BME280;26571;41.610;25.380;2022-09-09T14:40:40;98173.84;;;30.29;35.05
40850;BME280;26571;41.610;25.380;2022-09-09T14:43:05;98174.94;;;30.28;35.01
40850;BME280;26571;41.610;25.380;2022-09-09T14:45:31;98175.25;;;30.27;35.90
40850;BME280;26571;41.610;25.380;2022-09-09T14:47:57;98175.53;;;30.25;34.98
40850;BME280;26571;41.610;25.380;2022-09-09T14:50:23;98170.72;;;30.22;35.26
40850;BME280;26571;41.610;25.380;2022-09-09T14:52:49;98169.50;;;30.15;34.90
40850;BME280;26571;41.610;25.380;2022-09-09T14:55:16;98181.22;;;30.10;34.82
40850;BME280;26571;41.610;25.380;2022-09-09T14:57:42;98182.13;;;30.05;34.90
40850;BME280;26571;41.610;25.380;2022-09-09T15:00:09;98182.53;;;29.99;35.02